Time;durP1;ratioP1;P1;durP2;ratioP2;P2;SDS_P1;SDS_P2;PMS_P1;PMS_P2;Temp;Humidity;BMP_temperature;BMP_pressure;BME280_temperature;BME280_humidity;BME280_pressure;Samples;Min_cycle;Max_cycle;Signal;HPM_P1;HPM_P2
2024/03/27 00:01:18;;;;;;;14.98;7.82;;;;;;;4.65;51.04;98783.91;5034434;28;20032;-74
2024/03/27 00:03:44;;;;;;;12.35;7.97;;;;;;;4.60;50.77;98785.88;5029313;28;20461;-75
2024/03/27 00:06:10;;;;;;;14.23;8.27;;;;;;;4.70;50.91;98783.69;5038421;28;20036;-75
2024/03/27 00:08:35;;;;;;;15.32;7.53;;;;;;;4.72;50.96;98777.53;5011794;28;20712;-75
2024/03/27 00:11:01;;;;;;;14.90;7.65;;;;;;;4.66;50.85;98784.78;5033211;28;20067;-73
2024/03/27 00:13:26;;;;;;;12.52;6.75;;;;;;;4.68;50.90;98788.94;5025175;28;20478;-76
2024/03/27 00:15:52;;;;;;;13.68;6.85;;;;;;;4.60;50.77;98776.38;5035991;28;20043;-75
2024/03/27 00:18:21;;;;;;;12.45;7.55;;;;;;;4.56;51.00;98769.66;5035078;28;20049;-76
2024/03/27 00:20:47;;;;;;;14.65;8.55;;;;;;;4.53;51.13;98758.66;5029764;28;20478;-75
2024/03/27 00:23:13;;;;;;;15.00;7.13;;;;;;;4.38;51.68;98740.34;5031686;28;20082;-75
2024/03/27 00:25:39;;;;;;;15.25;8.85;;;;;;;4.50;51.53;98744.13;5022195;28;20776;-75
2024/03/27 00:28:05;;;;;;;14.77;8.30;;;;;;;4.64;50.90;98740.84;5028573;28;20033;-75
2024/03/27 00:30:30;;;;;;;15.05;7.22;;;;;;;4.48;51.45;98739.94;5028112;28;20028;-75
2024/03/27 00:32:58;;;;;;;16.05;8.18;;;;;;;4.38;51.69;98742.09;5037839;28;20817;-75
2024/03/27 00:35:24;;;;;;;16.45;7.97;;;;;;;4.44;51.51;98741.81;5027593;28;20088;-76
2024/03/27 00:37:53;;;;;;;11.80;7.57;;;;;;;4.41;52.06;98750.56;5019369;28;20036;-75
2024/03/27 00:40:19;;;;;;;13.20;8.27;;;;;;;4.53;51.72;98748.31;5032400;28;20036;-75
2024/03/27 00:42:46;;;;;;;14.32;8.82;;;;;;;4.44;52.11;98757.34;5027099;28;20041;-74
2024/03/27 00:45:13;;;;;;;16.02;9.25;;;;;;;4.48;51.77;98751.09;5037348;28;20028;-73
2024/03/27 00:47:39;;;;;;;13.10;7.68;;;;;;;4.59;51.67;98748.84;5026357;28;20044;-73
2024/03/27 00:50:05;;;;;;;14.00;8.13;;;;;;;4.56;51.88;98753.31;5034247;28;20036;-74
2024/03/27 00:52:32;;;;;;;15.32;8.48;;;;;;;4.58;51.44;98752.31;5024520;28;20040;-73
2024/03/27 00:54:58;;;;;;;14.77;8.18;;;;;;;4.55;51.61;98752.47;5042326;28;20063;-72
2024/03/27 00:57:24;;;;;;;14.38;8.48;;;;;;;4.52;51.86;98754.38;5030519;28;20045;-72
2024/03/27 00:59:49;;;;;;;14.88;8.57;;;;;;;4.37;52.38;98741.28;5034267;28;20115;-72
2024/03/27 01:02:15;;;;;;;18.48;9.80;;;;;;;4.45;51.89;98753.00;5031210;28;20041;-72
2024/03/27 01:04:41;;;;;;;17.25;7.90;;;;;;;4.43;52.00;98746.16;5020516;28;20421;-72
2024/03/27 01:07:06;;;;;;;15.27;8.80;;;;;;;4.34;52.18;98738.84;5033754;28;20031;-72
2024/03/27 01:09:32;;;;;;;17.80;8.48;;;;;;;4.49;51.67;98731.25;5022738;28;23534;-80
2024/03/27 01:11:58;;;;;;;17.20;8.70;;;;;;;4.50;51.74;98728.59;5034811;28;20037;-76
2024/03/27 01:14:25;;;;;;;14.50;8.13;;;;;;;4.53;51.81;98725.00;5023846;28;20029;-78
2024/03/27 01:16:50;;;;;;;18.55;9.07;;;;;;;4.50;51.80;98728.59;5027813;28;20147;-77
2024/03/27 01:19:16;;;;;;;14.48;8.27;;;;;;;4.60;51.27;98728.97;5037498;28;20033;-77
2024/03/27 01:21:42;;;;;;;18.77;9.57;;;;;;;4.52;51.58;98720.75;5023895;28;21255;-74
2024/03/27 01:24:07;;;;;;;17.45;8.63;;;;;;;4.58;51.82;98720.44;5016588;28;20596;-69
2024/03/27 01:26:32;;;;;;;14.05;8.43;;;;;;;4.59;51.81;98717.78;5023531;28;20027;-70
2024/03/27 01:28:58;;;;;;;13.10;8.90;;;;;;;4.58;51.66;98717.84;5038761;28;20036;-73
2024/03/27 01:31:23;;;;;;;17.60;8.43;;;;;;;4.58;51.82;98712.69;5032533;28;20036;-77
2024/03/27 01:33:49;;;;;;;18.17;8.25;;;;;;;4.57;51.67;98708.44;5026850;28;20049;-74
2024/03/27 01:36:14;;;;;;;17.45;9.25;;;;;;;4.58;51.60;98710.91;5031202;28;20074;-77
2024/03/27 01:38:40;;;;;;;16.85;8.85;;;;;;;4.56;51.71;98702.41;5023649;28;20057;-73
2024/03/27 01:41:05;;;;;;;16.13;8.23;;;;;;;4.45;51.87;98701.25;5029720;28;20048;-73
2024/03/27 01:43:31;;;;;;;17.00;10.07;;;;;;;4.51;51.65;98699.22;5026091;28;20040;-75
2024/03/27 01:45:58;;;;;;;19.40;9.38;;;;;;;4.45;51.77;98704.69;5031526;28;20063;-77
2024/03/27 01:48:23;;;;;;;14.65;8.50;;;;;;;4.42;52.14;98691.91;5028278;28;20078;-72
2024/03/27 01:50:49;;;;;;;17.13;9.80;;;;;;;4.36;52.14;98695.66;5025197;28;20135;-73
2024/03/27 01:53:15;;;;;;;15.60;9.13;;;;;;;4.38;52.30;98698.13;5019750;28;20040;-72
2024/03/27 01:55:41;;;;;;;18.80;9.23;;;;;;;4.34;52.01;98694.88;5024338;28;20033;-72
2024/03/27 01:58:09;;;;;;;14.93;9.27;;;;;;;4.32;51.98;98696.72;5021518;28;20033;-75
2024/03/27 02:00:35;;;;;;;13.82;8.45;;;;;;;4.28;52.30;98686.59;5026947;28;20564;-76
2024/03/27 02:03:05;;;;;;;18.30;8.57;;;;;;;4.31;52.26;98687.25;5030617;28;21275;-75
2024/03/27 02:05:31;;;;;;;21.45;9.60;;;;;;;4.34;51.89;98683.69;5025681;28;20113;-77
2024/03/27 02:07:57;;;;;;;17.00;9.55;;;;;;;4.37;52.07;98683.56;5017531;28;20040;-76
2024/03/27 02:10:22;;;;;;;16.05;8.60;;;;;;;4.39;52.08;98679.13;5035211;28;20040;-76
2024/03/27 02:12:48;;;;;;;15.80;8.93;;;;;;;4.32;52.20;98688.09;5020371;28;20095;-74
2024/03/27 02:15:14;;;;;;;15.50;8.30;;;;;;;4.46;51.98;98684.84;5016943;28;20036;-74
2024/03/27 02:17:39;;;;;;;18.70;10.27;;;;;;;4.52;52.09;98680.22;5024948;28;20051;-74
2024/03/27 02:20:06;;;;;;;18.88;9.90;;;;;;;4.48;52.07;98678.69;5031750;28;20111;-74
2024/03/27 02:22:33;;;;;;;21.08;9.38;;;;;;;4.21;52.24;98679.13;5027064;28;20036;-74
2024/03/27 02:25:15;;;;;;;18.05;10.70;;;;;;;4.41;52.00;98678.16;5034163;28;20789;-74
2024/03/27 02:27:42;;;;;;;17.85;10.18;;;;;;;4.47;52.13;98673.56;5006355;28;20623;-73
2024/03/27 02:30:08;;;;;;;18.45;9.32;;;;;;;4.54;51.84;98678.38;5029572;28;20115;-74
2024/03/27 02:32:34;;;;;;;16.08;8.43;;;;;;;4.57;51.71;98675.63;5022113;28;20033;-75
2024/03/27 02:35:01;;;;;;;18.40;9.05;;;;;;;4.59;51.69;98665.22;5025260;28;20037;-75
2024/03/27 02:37:27;;;;;;;16.48;9.13;;;;;;;4.71;51.52;98663.75;5031405;28;20430;-76
2024/03/27 02:39:52;;;;;;;17.05;8.90;;;;;;;4.71;51.30;98654.22;5009836;28;20131;-75
2024/03/27 02:42:17;;;;;;;15.77;9.25;;;;;;;4.63;51.46;98657.22;5034948;28;20048;-75
2024/03/27 02:44:43;;;;;;;16.10;9.15;;;;;;;4.70;51.67;98656.88;5018149;28;20123;-76
2024/03/27 02:47:08;;;;;;;12.75;8.25;;;;;;;4.69;51.50;98662.97;5032302;28;20494;-76
2024/03/27 02:49:34;;;;;;;16.38;8.82;;;;;;;4.71;51.29;98656.81;5022217;28;20391;-76
2024/03/27 02:51:59;;;;;;;17.67;9.27;;;;;;;4.74;50.90;98659.22;5014860;28;20544;-76
2024/03/27 02:54:25;;;;;;;18.60;9.32;;;;;;;4.64;51.59;98652.88;5028948;28;20551;-77
2024/03/27 02:56:50;;;;;;;16.88;9.50;;;;;;;4.86;50.88;98652.59;5017064;28;20634;-75
2024/03/27 02:59:16;;;;;;;19.75;8.63;;;;;;;4.71;51.20;98654.22;5029581;28;20562;-76
2024/03/27 03:01:41;;;;;;;17.65;9.13;;;;;;;4.75;51.03;98647.97;5009019;28;20059;-75
2024/03/27 03:04:09;;;;;;;17.55;9.20;;;;;;;4.75;51.16;98647.97;5030546;28;20035;-76
2024/03/27 03:06:36;;;;;;;16.85;8.88;;;;;;;4.91;50.76;98629.09;5022041;28;20025;-74
2024/03/27 03:09:02;;;;;;;15.68;9.82;;;;;;;4.82;51.03;98640.75;5029378;28;20029;-74
2024/03/27 03:11:28;;;;;;;19.55;9.45;;;;;;;4.76;51.39;98628.94;5031182;28;20039;-76
2024/03/27 03:13:53;;;;;;;18.58;9.55;;;;;;;4.79;51.11;98630.56;5026253;28;20378;-73
2024/03/27 03:16:19;;;;;;;18.98;10.30;;;;;;;4.84;51.26;98629.38;5030024;28;20500;-75
2024/03/27 03:18:47;;;;;;;17.85;10.00;;;;;;;4.89;50.80;98630.94;5014873;28;20602;-73
2024/03/27 03:21:13;;;;;;;15.25;8.80;;;;;;;4.81;51.21;98628.69;5036076;28;20025;-67
2024/03/27 03:23:39;;;;;;;18.35;9.65;;;;;;;4.86;50.88;98629.31;5022595;28;20682;-69
2024/03/27 03:26:04;;;;;;;17.65;8.35;;;;;;;4.80;51.07;98620.09;5034397;28;20435;-69
2024/03/27 03:28:29;;;;;;;16.17;8.88;;;;;;;4.72;51.25;98609.34;5037005;28;20120;-69
2024/03/27 03:31:02;;;;;;;17.80;10.27;;;;;;;4.82;50.89;98612.25;5027807;28;20440;-67
2024/03/27 03:33:28;;;;;;;18.48;8.63;;;;;;;4.77;51.10;98606.50;5034522;28;20713;-68
2024/03/27 03:35:54;;;;;;;16.17;8.82;;;;;;;4.63;51.51;98615.81;5028187;28;20151;-70
2024/03/27 03:38:20;;;;;;;18.70;9.23;;;;;;;4.82;51.19;98612.25;5033531;28;20510;-69
2024/03/27 03:41:01;;;;;;;19.50;9.82;;;;;;;4.83;51.22;98600.97;5028300;28;20783;-68
2024/03/27 03:43:26;;;;;;;16.77;9.25;;;;;;;4.70;51.65;98602.53;5038165;28;20659;-66
2024/03/27 03:45:52;;;;;;;17.58;10.25;;;;;;;4.61;51.39;98606.47;5029509;28;20032;-76
2024/03/27 03:48:17;;;;;;;17.63;9.27;;;;;;;4.79;51.37;98599.50;5034453;28;20458;-75
2024/03/27 03:50:43;;;;;;;20.75;9.52;;;;;;;4.83;51.11;98603.56;5029938;28;20033;-72
2024/03/27 03:53:08;;;;;;;14.60;9.27;;;;;;;4.97;50.98;98597.72;5030481;28;20048;-74
2024/03/27 03:55:34;;;;;;;17.55;10.25;;;;;;;4.99;51.15;98593.31;5037795;28;20028;-73
2024/03/27 03:58:00;;;;;;;16.08;9.77;;;;;;;4.88;50.96;98583.50;5025991;28;20123;-73
2024/03/27 04:00:25;;;;;;;20.77;10.68;;;;;;;5.03;50.66;98581.84;5036588;28;20115;-74
2024/03/27 04:02:52;;;;;;;17.25;9.85;;;;;;;5.08;50.64;98579.84;5025237;28;20056;-74
2024/03/27 04:05:17;;;;;;;19.38;9.23;;;;;;;5.03;50.96;98585.28;5036998;28;20692;-73
2024/03/27 04:07:46;;;;;;;20.20;9.73;;;;;;;4.79;51.16;98583.97;5028515;28;20056;-74
2024/03/27 04:10:11;;;;;;;18.50;9.30;;;;;;;4.83;51.01;98588.91;5033651;28;20036;-73
2024/03/27 04:12:37;;;;;;;18.35;9.35;;;;;;;4.99;50.79;98596.72;5033397;28;20040;-73
2024/03/27 04:15:05;;;;;;;16.02;9.32;;;;;;;5.02;50.71;98593.13;5030616;28;20040;-73
2024/03/27 04:17:33;;;;;;;15.35;8.90;;;;;;;4.89;50.80;98599.88;5036701;28;20044;-73
2024/03/27 04:20:00;;;;;;;14.90;8.93;;;;;;;4.94;50.77;98601.28;5014487;28;20399;-73
2024/03/27 04:22:28;;;;;;;16.00;9.02;;;;;;;4.99;50.86;98598.47;5034488;28;20124;-74
2024/03/27 04:24:54;;;;;;;15.60;9.35;;;;;;;4.98;50.75;98589.03;5009614;28;20082;-73
2024/03/27 04:27:19;;;;;;;16.85;9.45;;;;;;;5.06;50.68;98586.88;5034255;28;20478;-74
2024/03/27 04:29:45;;;;;;;25.00;9.88;;;;;;;5.07;50.32;98583.34;5033830;28;20025;-73
2024/03/27 04:32:11;;;;;;;18.73;9.65;;;;;;;5.01;50.68;98588.84;5031232;28;20102;-76
2024/03/27 04:34:37;;;;;;;17.13;9.38;;;;;;;4.84;50.86;98577.63;5032129;28;20131;-73
2024/03/27 04:37:02;;;;;;;16.00;9.00;;;;;;;4.81;51.03;98576.94;5026461;28;20159;-73
2024/03/27 04:39:27;;;;;;;16.05;9.95;;;;;;;5.00;50.54;98576.84;5028299;28;20060;-73
2024/03/27 04:41:53;;;;;;;19.25;9.20;;;;;;;5.06;50.43;98573.94;5028236;28;20071;-73
2024/03/27 04:44:19;;;;;;;19.05;9.52;;;;;;;5.21;50.09;98570.50;5035535;28;20458;-75
2024/03/27 04:46:44;;;;;;;17.17;9.55;;;;;;;5.00;50.40;98569.06;5034186;28;20036;-73
2024/03/27 04:49:10;;;;;;;16.27;7.93;;;;;;;5.28;49.88;98571.00;5015007;28;20040;-74
2024/03/27 04:51:39;;;;;;;15.45;9.13;;;;;;;5.15;50.06;98570.00;5032589;28;20048;-74
2024/03/27 04:54:04;;;;;;;16.42;9.73;;;;;;;5.28;49.79;98560.66;5018518;28;20045;-75
2024/03/27 04:56:32;;;;;;;15.48;9.02;;;;;;;5.31;49.74;98567.41;5031453;28;20029;-75
2024/03/27 04:58:58;;;;;;;15.18;8.07;;;;;;;5.30;49.72;98568.31;5026943;28;20075;-74
2024/03/27 05:01:23;;;;;;;16.05;9.18;;;;;;;5.28;49.93;98571.00;5021618;28;20621;-74
2024/03/27 05:03:49;;;;;;;15.90;10.20;;;;;;;5.18;50.22;98570.66;5026170;28;20469;-73
2024/03/27 05:06:15;;;;;;;16.17;8.75;;;;;;;5.17;50.22;98574.19;5025663;28;21322;-73
2024/03/27 05:08:40;;;;;;;16.15;8.50;;;;;;;5.10;50.63;98572.00;5029641;28;20106;-76
2024/03/27 05:11:06;;;;;;;16.35;8.52;;;;;;;5.15;50.24;98568.25;5029955;28;20435;-75
2024/03/27 05:13:32;;;;;;;16.30;9.23;;;;;;;5.25;49.96;98566.81;5032215;28;20127;-77
2024/03/27 05:15:58;;;;;;;16.48;9.45;;;;;;;5.22;50.21;98567.00;5028543;28;20065;-76
2024/03/27 05:18:23;;;;;;;18.45;9.52;;;;;;;5.04;50.47;98578.34;5034745;28;20047;-76
2024/03/27 05:20:52;;;;;;;17.80;8.60;;;;;;;5.21;49.82;98559.28;5030245;28;20602;-76
2024/03/27 05:23:17;;;;;;;12.57;8.63;;;;;;;5.05;50.36;98567.06;5035546;28;20361;-73
2024/03/27 05:25:43;;;;;;;17.63;8.55;;;;;;;5.14;50.43;98563.97;5030356;28;20032;-74
2024/03/27 05:28:09;;;;;;;18.27;10.20;;;;;;;5.08;50.51;98561.75;5041892;28;20049;-77
2024/03/27 05:30:35;;;;;;;16.05;9.25;;;;;;;5.02;50.35;98559.47;5036687;28;20063;-70
2024/03/27 05:33:01;;;;;;;15.02;8.98;;;;;;;5.00;50.54;98563.88;5021429;28;20148;-69
2024/03/27 05:35:26;;;;;;;16.50;9.05;;;;;;;5.07;50.69;98561.81;5046149;28;20363;-70
2024/03/27 05:37:51;;;;;;;13.82;8.32;;;;;;;5.04;50.41;98555.88;5026138;28;20780;-73
2024/03/27 05:40:18;;;;;;;18.23;8.93;;;;;;;5.08;50.63;98563.47;5029016;28;20098;-75
2024/03/27 05:42:44;;;;;;;14.07;8.40;;;;;;;5.12;50.29;98570.16;5033165;28;20041;-78
2024/03/27 05:45:10;;;;;;;18.27;9.02;;;;;;;5.09;50.37;98565.16;5035091;28;20036;-73
2024/03/27 05:47:37;;;;;;;14.40;8.73;;;;;;;5.08;50.38;98572.09;5032942;28;20045;-74
2024/03/27 05:50:05;;;;;;;14.10;8.15;;;;;;;5.07;50.41;98575.59;5021890;28;20843;-75
2024/03/27 05:52:30;;;;;;;17.70;8.43;;;;;;;5.12;50.43;98578.75;5040285;28;20045;-78
2024/03/27 05:54:56;;;;;;;17.65;8.52;;;;;;;5.16;50.26;98575.09;5026832;28;20028;-77
2024/03/27 05:57:22;;;;;;;15.68;8.63;;;;;;;5.05;50.61;98574.81;5031347;28;21415;-71
2024/03/27 05:59:47;;;;;;;14.95;8.98;;;;;;;5.08;51.15;98587.63;5026949;28;20056;-72
2024/03/27 06:02:13;;;;;;;17.00;8.82;;;;;;;5.18;50.96;98591.38;5029448;28;20112;-74
2024/03/27 06:04:39;;;;;;;15.63;8.82;;;;;;;5.07;51.20;98593.72;5029184;28;20426;-71
2024/03/27 06:07:04;;;;;;;14.20;8.77;;;;;;;4.94;51.61;98597.88;5024535;28;20296;-75
2024/03/27 06:09:29;;;;;;;16.83;9.50;;;;;;;4.99;51.43;98585.53;5031242;28;20596;-73
2024/03/27 06:11:55;;;;;;;14.75;8.60;;;;;;;5.15;51.21;98586.38;5025382;28;20548;-74
2024/03/27 06:14:20;;;;;;;18.92;9.07;;;;;;;5.12;51.22;98590.88;5021119;28;20281;-75
2024/03/27 06:16:46;;;;;;;16.67;8.57;;;;;;;5.13;51.09;98598.56;5013213;28;20043;-74
2024/03/27 06:19:11;;;;;;;17.55;8.75;;;;;;;5.38;50.98;98598.06;5024262;28;20036;-70
2024/03/27 06:21:37;;;;;;;15.90;9.20;;;;;;;5.44;50.92;98599.50;5036269;28;20099;-70
2024/03/27 06:24:03;;;;;;;14.57;8.02;;;;;;;5.42;50.76;98603.94;5022362;28;20043;-69
2024/03/27 06:26:28;;;;;;;16.17;8.10;;;;;;;5.53;50.53;98595.56;5025909;28;20025;-74
2024/03/27 06:28:54;;;;;;;16.88;9.05;;;;;;;5.57;50.37;98597.91;5051828;27;20265;-74
2024/03/27 06:31:19;;;;;;;14.95;8.70;;;;;;;5.67;50.40;98606.81;5025439;28;20505;-68
2024/03/27 06:33:46;;;;;;;16.25;9.07;;;;;;;5.74;50.52;98599.53;5029678;28;20572;-76
2024/03/27 06:36:11;;;;;;;15.93;9.13;;;;;;;5.80;50.08;98594.00;5017644;28;20543;-72
2024/03/27 06:38:41;;;;;;;15.05;8.27;;;;;;;5.92;49.83;98597.66;5026245;28;20044;-73
2024/03/27 06:41:07;;;;;;;17.35;8.30;;;;;;;6.01;49.50;98597.13;5024639;28;21011;-73
2024/03/27 06:43:33;;;;;;;16.85;7.93;;;;;;;5.91;49.73;98584.81;5014699;28;20033;-71
2024/03/27 06:45:58;;;;;;;14.45;8.85;;;;;;;6.10;49.79;98580.19;5026188;28;20041;-71
2024/03/27 06:48:32;;;;;;;15.88;8.05;;;;;;;6.21;49.33;98587.38;5026877;28;20052;-71
2024/03/27 06:50:58;;;;;;;13.18;8.35;;;;;;;6.27;49.35;98592.19;5022085;28;20497;-71
2024/03/27 06:53:26;;;;;;;14.93;8.73;;;;;;;6.35;48.74;98587.44;5031723;28;20076;-71
2024/03/27 06:55:52;;;;;;;12.75;7.85;;;;;;;6.48;48.65;98590.97;5031882;28;20498;-71
2024/03/27 06:58:17;;;;;;;17.08;9.23;;;;;;;6.95;47.72;98583.81;5024092;28;20043;-71
2024/03/27 07:00:43;;;;;;;13.52;8.05;;;;;;;7.23;46.80;98582.13;5028606;28;20044;-70
2024/03/27 07:03:09;;;;;;;15.65;9.32;;;;;;;7.56;46.59;98576.59;5020956;28;20071;-71
2024/03/27 07:05:35;;;;;;;11.75;7.72;;;;;;;8.31;45.31;98565.59;5026082;28;20063;-72
2024/03/27 07:08:03;;;;;;;12.82;8.05;;;;;;;8.50;43.89;98568.63;5024203;28;20477;-71
2024/03/27 07:10:28;;;;;;;12.05;7.70;;;;;;;8.26;43.73;98572.91;5025462;28;20027;-69
2024/03/27 07:12:54;;;;;;;12.23;7.28;;;;;;;8.15;44.08;98571.84;5024419;28;20040;-72
2024/03/27 07:15:19;;;;;;;11.93;7.55;;;;;;;8.30;44.34;98585.59;5024305;28;20078;-72
2024/03/27 07:17:50;;;;;;;12.45;7.38;;;;;;;9.48;42.34;98584.44;5028302;28;20094;-70
2024/03/27 07:20:15;;;;;;;12.43;8.25;;;;;;;11.00;38.63;98575.69;5014514;28;20166;-71
2024/03/27 07:22:43;;;;;;;8.60;6.18;;;;;;;12.75;35.10;98575.47;5018840;28;20049;-70
2024/03/27 07:25:09;;;;;;;10.10;6.75;;;;;;;14.40;32.97;98574.84;5022913;28;20033;-70
2024/03/27 07:27:36;;;;;;;12.48;7.13;;;;;;;15.95;29.99;98579.31;5026721;28;20045;-70
2024/03/27 07:30:02;;;;;;;12.10;6.38;;;;;;;16.71;28.50;98580.53;5022572;28;20108;-71
2024/03/27 07:32:27;;;;;;;9.30;6.35;;;;;;;15.40;29.42;98584.72;5026683;28;20044;-69
2024/03/27 07:34:53;;;;;;;9.82;5.95;;;;;;;13.02;32.85;98582.75;5021293;28;20490;-68
2024/03/27 07:37:19;;;;;;;15.30;6.93;;;;;;;11.21;36.18;98588.03;5027717;28;20089;-68
2024/03/27 07:39:44;;;;;;;10.40;6.88;;;;;;;10.50;37.86;98571.72;5026057;28;20098;-67
2024/03/27 07:42:10;;;;;;;13.02;6.28;;;;;;;10.10;39.20;98572.97;5023202;28;20892;-70
2024/03/27 07:44:35;;;;;;;12.93;6.20;;;;;;;9.91;39.46;98564.84;5026247;28;20033;-69
2024/03/27 07:47:00;;;;;;;12.23;7.70;;;;;;;9.62;39.82;98564.34;5021510;28;20613;-69
2024/03/27 07:49:26;;;;;;;15.52;7.05;;;;;;;8.98;41.22;98560.16;5026675;28;20929;-68
2024/03/27 07:51:51;;;;;;;10.48;6.93;;;;;;;8.80;41.99;98551.88;5027232;28;20605;-66
2024/03/27 07:54:17;;;;;;;10.65;7.30;;;;;;;8.44;42.79;98566.44;5021553;28;20032;-67
2024/03/27 07:56:44;;;;;;;12.65;6.95;;;;;;;8.48;43.02;98567.91;5024413;28;20032;-67
2024/03/27 07:59:10;;;;;;;14.60;6.68;;;;;;;8.52;42.89;98553.75;5024942;28;20041;-68
2024/03/27 08:01:35;;;;;;;10.93;6.38;;;;;;;8.67;42.64;98551.88;5024794;28;20095;-70
2024/03/27 08:04:01;;;;;;;10.27;7.13;;;;;;;8.43;43.11;98543.13;5024800;28;20457;-70
2024/03/27 08:06:27;;;;;;;14.98;6.78;;;;;;;8.68;42.69;98544.88;5027198;28;20060;-70
2024/03/27 08:08:52;;;;;;;10.70;6.50;;;;;;;8.69;43.01;98543.94;5040303;28;20051;-71
2024/03/27 08:11:18;;;;;;;9.75;6.07;;;;;;;8.54;43.84;98549.28;5027717;28;20052;-71
2024/03/27 08:13:44;;;;;;;12.05;7.00;;;;;;;8.38;43.09;98559.03;5033102;28;20036;-70
2024/03/27 08:16:10;;;;;;;9.65;6.53;;;;;;;8.37;43.79;98560.00;5033795;28;20037;-71
2024/03/27 08:18:43;;;;;;;12.63;6.85;;;;;;;8.44;44.35;98561.25;5027822;28;20044;-70
2024/03/27 08:21:09;;;;;;;10.60;6.13;;;;;;;8.37;44.13;98567.81;5029486;28;20033;-68
2024/03/27 08:23:35;;;;;;;14.70;6.55;;;;;;;8.34;43.99;98576.66;5026188;28;20052;-69
2024/03/27 08:26:02;;;;;;;11.57;6.00;;;;;;;8.53;43.95;98586.63;5028306;28;20668;-69
2024/03/27 08:28:28;;;;;;;11.13;6.63;;;;;;;8.62;43.84;98590.41;5026098;28;20140;-70
2024/03/27 08:30:53;;;;;;;10.23;6.10;;;;;;;8.49;43.93;98584.34;5034561;28;20077;-70
2024/03/27 08:33:19;;;;;;;11.25;7.00;;;;;;;8.39;44.06;98584.16;5025041;28;20453;-70
2024/03/27 08:35:45;;;;;;;13.73;6.90;;;;;;;8.66;43.63;98575.41;5031080;28;20853;-69
2024/03/27 08:38:10;;;;;;;13.45;7.25;;;;;;;8.83;43.77;98577.72;5026737;28;20045;-69
2024/03/27 08:40:36;;;;;;;14.57;7.72;;;;;;;8.90;43.15;98576.34;5030660;28;20037;-71
2024/03/27 08:43:02;;;;;;;11.23;6.03;;;;;;;9.09;43.14;98569.84;5029033;28;20040;-71
2024/03/27 08:45:28;;;;;;;10.80;6.10;;;;;;;9.18;43.00;98564.78;5036468;28;20037;-70
2024/03/27 08:47:53;;;;;;;10.43;5.78;;;;;;;9.13;42.58;98559.09;5034358;28;20484;-69
2024/03/27 08:50:19;;;;;;;20.05;6.93;;;;;;;9.37;42.42;98571.31;5025399;28;20040;-69
2024/03/27 08:52:47;;;;;;;13.75;6.35;;;;;;;9.43;42.22;98578.69;5027186;28;20793;-69
2024/03/27 08:55:12;;;;;;;9.63;6.05;;;;;;;9.13;42.32;98571.28;5032978;28;20033;-69
2024/03/27 08:57:38;;;;;;;8.48;6.55;;;;;;;9.39;41.51;98574.66;5029888;28;20099;-69
2024/03/27 09:00:06;;;;;;;12.32;6.10;;;;;;;9.49;41.96;98574.81;5026286;28;20039;-71
2024/03/27 09:02:34;;;;;;;13.05;6.63;;;;;;;9.34;41.89;98568.91;5028945;28;20182;-72
2024/03/27 09:04:59;;;;;;;14.60;6.95;;;;;;;9.33;41.68;98578.53;5021224;28;20679;-71
2024/03/27 09:07:25;;;;;;;12.57;6.18;;;;;;;9.53;41.55;98571.06;5032807;28;20598;-71
2024/03/27 09:09:50;;;;;;;9.75;6.18;;;;;;;9.45;41.77;98570.75;5030334;28;20587;-72
2024/03/27 09:12:16;;;;;;;11.75;6.63;;;;;;;9.75;41.83;98580.75;5022783;28;20489;-69
2024/03/27 09:14:41;;;;;;;10.13;6.05;;;;;;;9.85;41.51;98576.56;5030542;28;20097;-71
2024/03/27 09:17:08;;;;;;;11.07;7.30;;;;;;;10.11;41.33;98572.03;5008034;28;20025;-71
2024/03/27 09:19:35;;;;;;;10.20;5.60;;;;;;;10.28;40.89;98578.59;5027412;28;20025;-71
2024/03/27 09:22:01;;;;;;;9.40;6.18;;;;;;;10.37;40.64;98577.03;5020549;28;20041;-71
2024/03/27 09:24:28;;;;;;;9.13;6.20;;;;;;;10.24;40.50;98574.56;5037260;28;20044;-71
2024/03/27 09:26:54;;;;;;;7.55;5.32;;;;;;;10.39;40.66;98576.00;5028136;28;20696;-71
2024/03/27 09:29:19;;;;;;;11.32;6.82;;;;;;;10.77;40.04;98585.31;5027222;28;20044;-74
2024/03/27 09:31:45;;;;;;;13.23;7.97;;;;;;;10.96;39.73;98591.75;5026060;28;20049;-72
2024/03/27 09:34:10;;;;;;;13.85;7.68;;;;;;;11.68;38.90;98591.25;5025508;28;20047;-71
2024/03/27 09:36:36;;;;;;;11.93;5.68;;;;;;;12.85;37.60;98594.72;5024656;28;20028;-71
2024/03/27 09:39:02;;;;;;;9.38;6.20;;;;;;;12.70;36.75;98595.03;5028106;28;20048;-72
2024/03/27 09:41:28;;;;;;;11.63;5.55;;;;;;;13.82;34.30;98596.75;5027420;28;20115;-72
2024/03/27 09:43:55;;;;;;;7.63;5.35;;;;;;;14.39;34.00;98600.28;5030354;28;20043;-72
2024/03/27 09:46:21;;;;;;;7.55;5.40;;;;;;;14.14;33.21;98591.19;5024033;28;20036;-72
2024/03/27 09:48:47;;;;;;;7.70;4.93;;;;;;;13.79;33.63;98595.22;5022699;28;20052;-71
2024/03/27 09:51:15;;;;;;;9.57;5.28;;;;;;;13.02;34.89;98596.69;5026763;28;20123;-71
2024/03/27 09:53:43;;;;;;;7.55;5.07;;;;;;;13.36;33.66;98590.28;5023240;28;20067;-70
2024/03/27 09:56:11;;;;;;;11.60;5.30;;;;;;;13.19;35.59;98583.91;5021057;28;20029;-71
2024/03/27 09:58:37;;;;;;;6.55;5.05;;;;;;;13.52;34.85;98580.94;5023319;28;20040;-70
2024/03/27 10:01:07;;;;;;;11.40;4.75;;;;;;;13.32;34.44;98584.50;5024023;28;20397;-72
2024/03/27 10:03:35;;;;;;;9.50;5.22;;;;;;;13.19;34.82;98591.78;5024909;28;20041;-72
2024/03/27 10:06:03;;;;;;;9.35;5.10;;;;;;;13.31;34.37;98609.06;5020501;28;20029;-70
2024/03/27 10:08:29;;;;;;;7.90;5.47;;;;;;;13.09;34.79;98610.94;5023054;28;20139;-73
2024/03/27 10:10:57;;;;;;;7.25;4.45;;;;;;;12.08;36.82;98603.72;5025159;28;20510;-72
2024/03/27 10:13:24;;;;;;;6.47;4.43;;;;;;;12.10;36.48;98607.03;5017991;28;20060;-71
2024/03/27 10:15:51;;;;;;;8.45;4.88;;;;;;;10.85;38.84;98608.25;5026618;28;20037;-72
2024/03/27 10:18:17;;;;;;;8.02;4.80;;;;;;;12.17;37.42;98613.44;5023402;28;20047;-70
2024/03/27 10:20:43;;;;;;;8.57;5.72;;;;;;;11.90;38.75;98615.72;5032428;28;20028;-71
2024/03/27 10:23:09;;;;;;;10.40;4.88;;;;;;;12.89;36.85;98614.44;5028869;28;20045;-72
2024/03/27 10:25:40;;;;;;;7.03;5.00;;;;;;;12.78;37.76;98618.00;5025655;28;20036;-71
2024/03/27 10:28:07;;;;;;;8.27;4.40;;;;;;;14.47;36.83;98612.75;5029420;28;20505;-71
2024/03/27 10:30:34;;;;;;;9.30;5.20;;;;;;;15.28;34.20;98606.94;5026556;28;20097;-71
2024/03/27 10:32:59;;;;;;;8.65;4.55;;;;;;;15.29;32.95;98611.25;5027140;28;20049;-71
2024/03/27 10:35:30;;;;;;;6.88;4.53;;;;;;;15.03;33.55;98603.97;5020823;28;20712;-68
2024/03/27 10:37:58;;;;;;;5.47;4.80;;;;;;;14.26;34.01;98608.47;5024819;28;20041;-68
2024/03/27 10:40:23;;;;;;;5.43;4.18;;;;;;;13.73;34.78;98614.13;5020333;28;20036;-70
2024/03/27 10:43:00;;;;;;;7.97;5.07;;;;;;;13.85;34.90;98607.81;5024098;28;20044;-69
2024/03/27 10:45:28;;;;;;;6.22;5.00;;;;;;;13.86;35.35;98608.63;5026042;28;21518;-69
2024/03/27 10:47:54;;;;;;;7.82;4.90;;;;;;;14.01;35.64;98609.03;5023128;28;20077;-69
2024/03/27 10:50:21;;;;;;;7.75;4.93;;;;;;;12.50;37.45;98616.81;5019839;28;20093;-69
2024/03/27 10:52:47;;;;;;;5.70;4.55;;;;;;;12.99;36.62;98614.50;5021365;28;20067;-69
2024/03/27 10:55:13;;;;;;;6.95;3.75;;;;;;;13.96;35.93;98614.69;5017780;28;20835;-69
2024/03/27 10:57:39;;;;;;;8.15;4.70;;;;;;;13.71;35.79;98610.81;5028662;28;20504;-69
2024/03/27 11:00:05;;;;;;;10.43;4.07;;;;;;;13.50;35.92;98606.47;5039930;28;20032;-69
2024/03/27 11:02:31;;;;;;;9.52;4.43;;;;;;;12.88;36.85;98613.59;5025940;28;20481;-69
2024/03/27 11:05:01;;;;;;;10.77;4.75;;;;;;;13.41;36.79;98604.69;5023390;28;20135;-69
2024/03/27 11:07:32;;;;;;;6.65;4.82;;;;;;;13.19;37.11;98602.28;5020985;28;20706;-69
2024/03/27 11:09:58;;;;;;;6.65;3.83;;;;;;;13.60;36.47;98595.19;5012485;28;20502;-68
2024/03/27 11:12:24;;;;;;;5.78;3.75;;;;;;;13.63;36.97;98603.66;5021312;28;20127;-69
2024/03/27 11:14:51;;;;;;;4.72;3.47;;;;;;;13.85;35.92;98607.81;5023945;28;20033;-71
2024/03/27 11:17:17;;;;;;;6.68;4.25;;;;;;;13.28;36.82;98611.97;5016104;28;20539;-68
2024/03/27 11:19:46;;;;;;;6.03;3.20;;;;;;;13.36;36.75;98622.63;5024030;28;20060;-71
2024/03/27 11:22:14;;;;;;;10.23;4.53;;;;;;;13.95;37.28;98618.31;5014507;28;20040;-69
2024/03/27 11:24:43;;;;;;;7.32;4.88;;;;;;;14.05;35.69;98613.84;5041213;28;20236;-71
2024/03/27 11:27:10;;;;;;;6.47;5.15;;;;;;;14.25;34.95;98617.31;4991819;28;20039;-68